Terminal Aerodrome Forecast
Issued by NWS

Home | Current Version | Previous Version | Text Only | Print | Product List | Glossary On
Versions: 1 2 3 4 5 6 7 8 9 10 11 12 13 14 15 16 17
000
FTUS42 KMHX 301100
TAFISO
TAF
KISO 301139Z 3012/3112 02008KT P6SM SCT020 BKN050
     FM301400 02007KT P6SM FEW040 BKN100
     FM302200 02004KT P6SM FEW040 SCT250
      AMD LTD TO CLD VIS AND WIND=

USA.gov is the U.S. government's official web portal to all federal, state and local government web resources and services.